createdAt,value
2022-11-12T00:01:26.804Z,27.67
2022-11-12T00:03:55.900Z,26.33
2022-11-12T00:06:27.932Z,29.10
2022-11-12T00:08:56.255Z,28.30
2022-11-12T00:11:27.284Z,28.63
2022-11-12T00:13:56.784Z,26.40
2022-11-12T00:16:24.886Z,34.87
2022-11-12T00:18:53.075Z,38.30
2022-11-12T00:21:21.139Z,32.20
2022-11-12T00:23:50.387Z,35.90
2022-11-12T00:26:18.265Z,34.00
2022-11-12T00:28:48.299Z,35.03
2022-11-12T00:31:16.420Z,30.77
2022-11-12T00:33:46.305Z,31.67
2022-11-12T00:36:15.949Z,29.20
2022-11-12T00:38:43.913Z,29.87
2022-11-12T00:41:13.340Z,29.37
2022-11-12T00:43:41.288Z,34.80
2022-11-12T00:46:09.267Z,36.90
2022-11-12T00:48:37.192Z,33.87
2022-11-12T00:51:06.994Z,34.07
2022-11-12T00:53:35.025Z,36.27
2022-11-12T00:56:04.745Z,33.50
2022-11-12T00:58:35.921Z,36.37
2022-11-12T01:01:08.953Z,34.07
2022-11-12T01:03:37.411Z,33.73
2022-11-12T01:06:06.314Z,35.63
2022-11-12T01:08:34.584Z,36.93
2022-11-12T01:11:11.311Z,34.67
2022-11-12T01:13:44.357Z,30.33
2022-11-12T01:16:15.015Z,33.23
2022-11-12T01:18:43.463Z,31.93
2022-11-12T01:21:11.568Z,35.17
2022-11-12T01:23:42.062Z,31.77
2022-11-12T01:26:15.634Z,34.57
2022-11-12T01:28:45.036Z,31.10
2022-11-12T01:31:21.474Z,33.03
2022-11-12T01:33:50.917Z,31.03
2022-11-12T01:36:19.937Z,34.23
2022-11-12T01:38:49.146Z,34.00
2022-11-12T01:41:19.749Z,32.53
2022-11-12T01:43:49.106Z,31.10
2022-11-12T01:46:22.856Z,32.57
2022-11-12T01:48:55.152Z,31.53
2022-11-12T01:51:27.092Z,29.10
2022-11-12T01:53:57.632Z,28.90
2022-11-12T01:56:28.590Z,30.73
2022-11-12T01:59:02.650Z,32.23
2022-11-12T02:01:31.259Z,30.50
2022-11-12T02:03:59.564Z,31.60
2022-11-12T02:06:27.649Z,32.43
2022-11-12T02:08:55.775Z,30.17
2022-11-12T02:11:46.088Z,30.33
2022-11-12T02:14:16.874Z,33.00
2022-11-12T02:16:46.981Z,34.93
2022-11-12T02:19:17.474Z,32.90
2022-11-12T02:21:47.484Z,35.97
2022-11-12T02:24:33.599Z,40.17
2022-11-12T02:27:01.929Z,37.67
2022-11-12T02:29:29.893Z,37.83
2022-11-12T02:31:58.670Z,40.37
2022-11-12T02:34:26.872Z,42.10
2022-11-12T02:36:56.787Z,41.50
2022-11-12T02:39:25.137Z,42.57
2022-11-12T02:42:13.064Z,42.43
2022-11-12T02:44:41.514Z,44.20
2022-11-12T02:47:09.573Z,45.10
2022-11-12T02:49:37.838Z,45.43
2022-11-12T02:52:08.828Z,43.63
2022-11-12T02:54:36.730Z,48.50
2022-11-12T02:57:14.517Z,48.07
2022-11-12T02:59:43.658Z,50.53
2022-11-12T03:02:14.949Z,49.30
2022-11-12T03:04:49.162Z,54.63
2022-11-12T03:07:19.907Z,47.33
2022-11-12T03:09:49.220Z,50.50
2022-11-12T03:12:18.487Z,49.30
2022-11-12T03:14:46.546Z,50.33
2022-11-12T03:17:14.771Z,51.23
2022-11-12T03:19:43.256Z,46.90
2022-11-12T03:22:11.490Z,54.60
2022-11-12T03:24:40.778Z,50.33
2022-11-12T03:27:09.095Z,54.50
2022-11-12T03:29:40.344Z,49.40
2022-11-12T03:32:08.318Z,49.13
2022-11-12T03:34:56.949Z,51.83
2022-11-12T03:37:25.226Z,50.10
2022-11-12T03:40:02.084Z,51.20
2022-11-12T03:42:30.287Z,48.37
2022-11-12T03:44:58.660Z,47.90
2022-11-12T03:47:47.708Z,50.07
2022-11-12T03:50:19.675Z,43.43
2022-11-12T03:52:50.715Z,43.13
2022-11-12T03:55:22.489Z,44.33
2022-11-12T03:57:56.922Z,46.10
2022-11-12T04:00:29.115Z,47.47
2022-11-12T04:02:58.818Z,45.03
2022-11-12T04:05:46.336Z,48.50
2022-11-12T04:08:35.778Z,46.90
2022-11-12T04:11:08.337Z,45.40
2022-11-12T04:13:38.618Z,39.17
2022-11-12T04:16:26.561Z,39.13
2022-11-12T04:19:13.312Z,37.90
2022-11-12T04:21:52.064Z,35.73
2022-11-12T04:24:39.343Z,28.63
2022-11-12T04:27:09.785Z,33.20
2022-11-12T04:29:55.608Z,30.00
2022-11-12T04:32:25.344Z,28.60
2022-11-12T04:34:53.619Z,27.77
2022-11-12T04:37:23.591Z,26.50
2022-11-12T04:39:51.892Z,30.23
2022-11-12T04:42:38.973Z,26.33
2022-11-12T04:45:09.159Z,26.97
2022-11-12T04:47:38.473Z,24.93
2022-11-12T04:50:08.637Z,27.70
2022-11-12T04:52:36.849Z,24.13
2022-11-12T04:55:05.420Z,25.70
2022-11-12T04:57:34.695Z,21.03
2022-11-12T05:00:02.689Z,22.70
2022-11-12T05:02:30.581Z,24.77
2022-11-12T05:04:58.518Z,19.77
2022-11-12T05:07:26.490Z,20.80
2022-11-12T05:09:54.391Z,22.40
2022-11-12T05:12:22.378Z,20.73
2022-11-12T05:14:51.692Z,27.17
2022-11-12T05:17:19.680Z,20.53
2022-11-12T05:19:47.533Z,23.50
2022-11-12T05:22:40.384Z,27.10
2022-11-12T05:25:03.541Z,25.43
2022-11-12T05:27:31.603Z,24.80
2022-11-12T05:30:01.051Z,27.80
2022-11-12T05:32:28.964Z,27.20
2022-11-12T05:34:56.960Z,24.70
2022-11-12T05:37:24.897Z,28.63
2022-11-12T05:39:52.777Z,25.97
2022-11-12T05:42:20.713Z,30.93
2022-11-12T05:44:48.750Z,28.13
2022-11-12T05:47:18.075Z,40.23
2022-11-12T05:49:46.073Z,26.33
2022-11-12T05:52:14.073Z,35.00
2022-11-12T05:54:41.951Z,45.97
2022-11-12T05:57:09.871Z,30.87
2022-11-12T05:59:37.865Z,32.60
2022-11-12T06:02:05.863Z,38.50
2022-11-12T06:04:35.178Z,29.80
2022-11-12T06:07:04.345Z,33.00
2022-11-12T06:09:32.387Z,41.47
2022-11-12T06:12:00.247Z,36.57
2022-11-12T06:14:28.195Z,31.60
2022-11-12T06:16:56.156Z,39.17
2022-11-12T06:19:24.072Z,33.53
2022-11-12T06:21:53.496Z,31.30
2022-11-12T06:24:21.659Z,34.63
2022-11-12T06:26:49.591Z,37.97
2022-11-12T06:29:17.489Z,37.63
2022-11-12T06:31:45.405Z,34.77
2022-11-12T06:34:13.512Z,33.27
2022-11-12T06:36:41.498Z,33.97
2022-11-12T06:39:11.812Z,29.37
2022-11-12T06:41:39.735Z,28.83
2022-11-12T06:44:07.957Z,26.07
2022-11-12T06:46:35.836Z,26.10
2022-11-12T06:49:03.822Z,28.10
2022-11-12T06:51:31.730Z,26.83
2022-11-12T06:53:59.770Z,25.67
2022-11-12T06:56:29.030Z,22.77
2022-11-12T06:58:56.958Z,23.93
2022-11-12T07:01:24.945Z,26.73
2022-11-12T07:03:53.870Z,23.13
2022-11-12T07:06:22.390Z,25.00
2022-11-12T07:08:50.925Z,22.43
2022-11-12T07:11:20.102Z,20.63
2022-11-12T07:13:49.659Z,21.17
2022-11-12T07:16:18.910Z,22.03
2022-11-12T07:18:47.804Z,21.20
2022-11-12T07:21:17.308Z,19.13
2022-11-12T07:23:46.098Z,18.03
2022-11-12T07:26:16.056Z,18.63
2022-11-12T07:28:43.966Z,19.77
2022-11-12T07:31:14.898Z,18.57
2022-11-12T07:33:43.244Z,20.33
2022-11-12T07:36:12.775Z,17.70
2022-11-12T07:38:42.425Z,17.97
2022-11-12T07:41:13.039Z,17.43
2022-11-12T07:43:43.276Z,16.30
2022-11-12T07:46:15.196Z,15.43
2022-11-12T07:48:44.539Z,18.57
2022-11-12T07:51:15.327Z,16.67
2022-11-12T07:53:44.410Z,17.30
2022-11-12T07:56:13.536Z,14.83
2022-11-12T07:58:41.701Z,16.37
2022-11-12T08:01:11.335Z,13.53
2022-11-12T08:03:40.693Z,12.73
2022-11-12T08:06:09.256Z,16.03
2022-11-12T08:08:37.178Z,17.20
2022-11-12T08:11:05.271Z,14.87
2022-11-12T08:13:33.227Z,15.97
2022-11-12T08:16:01.334Z,16.10
2022-11-12T08:18:29.875Z,17.07
2022-11-12T08:21:02.705Z,15.33
2022-11-12T08:23:30.933Z,18.27
2022-11-12T08:25:59.986Z,17.90
2022-11-12T08:28:29.725Z,12.13
2022-11-12T08:30:59.721Z,14.90
2022-11-12T08:33:27.731Z,16.03
2022-11-12T08:35:55.629Z,16.47
2022-11-12T08:38:25.146Z,15.27
2022-11-12T08:40:53.407Z,13.93
2022-11-12T08:43:21.316Z,15.50
2022-11-12T08:45:50.028Z,17.27
2022-11-12T08:48:18.061Z,14.40
2022-11-12T08:50:45.998Z,14.23
2022-11-12T08:53:15.042Z,16.47
2022-11-12T08:55:44.504Z,16.93
2022-11-12T08:58:12.352Z,16.70
2022-11-12T09:00:43.068Z,14.17
2022-11-12T09:03:15.518Z,13.20
2022-11-12T09:05:44.062Z,13.07
2022-11-12T09:08:14.142Z,17.10
2022-11-12T09:10:42.334Z,16.03
2022-11-12T09:13:11.555Z,17.03
2022-11-12T09:15:39.508Z,15.87
2022-11-12T09:18:09.437Z,19.97
2022-11-12T09:20:37.406Z,16.20
2022-11-12T09:23:07.934Z,21.30
2022-11-12T09:25:36.627Z,15.97
2022-11-12T09:28:09.366Z,23.13
2022-11-12T09:30:42.703Z,15.47
2022-11-12T09:33:10.619Z,17.13
2022-11-12T09:35:38.611Z,18.30
2022-11-12T09:38:06.595Z,15.70
2022-11-12T09:40:46.764Z,14.07
2022-11-12T09:43:23.332Z,20.10
2022-11-12T09:46:13.843Z,16.10
2022-11-12T09:48:49.717Z,17.53
2022-11-12T09:51:24.630Z,16.53
2022-11-12T09:53:56.882Z,14.90
2022-11-12T09:56:26.040Z,16.13
2022-11-12T09:58:54.576Z,15.80
2022-11-12T10:01:34.238Z,15.67
2022-11-12T10:04:19.350Z,17.80
2022-11-12T10:06:53.205Z,16.80
2022-11-12T10:09:25.000Z,16.33
2022-11-12T10:12:29.652Z,14.93
2022-11-12T10:15:38.973Z,15.17
2022-11-12T10:18:14.660Z,14.67
2022-11-12T10:20:49.633Z,17.57
2022-11-12T10:23:22.079Z,14.20
2022-11-12T10:25:52.466Z,12.13
2022-11-12T10:28:28.365Z,11.97
2022-11-12T10:31:01.896Z,10.87
2022-11-12T10:33:33.974Z,10.60
2022-11-12T10:36:22.430Z,12.23
2022-11-12T10:38:54.822Z,12.90
2022-11-12T10:41:25.989Z,12.27
2022-11-12T10:43:59.255Z,10.30
2022-11-12T10:46:29.232Z,12.13
2022-11-12T10:49:07.989Z,9.70
2022-11-12T10:51:37.897Z,11.00
2022-11-12T10:54:29.926Z,10.73
2022-11-12T10:56:58.846Z,11.70
2022-11-12T10:59:27.411Z,9.53
2022-11-12T11:01:57.779Z,10.00
2022-11-12T11:04:32.751Z,10.93
2022-11-12T11:07:04.144Z,12.40
2022-11-12T11:09:32.625Z,8.30
2022-11-12T11:12:01.147Z,11.37
2022-11-12T11:14:33.880Z,7.83
2022-11-12T11:17:08.195Z,7.37
2022-11-12T11:19:40.740Z,11.40
2022-11-12T11:22:25.851Z,8.77
2022-11-12T11:25:17.658Z,12.33
2022-11-12T11:27:59.648Z,8.93
2022-11-12T11:30:28.319Z,6.47
2022-11-12T11:33:20.480Z,7.87
2022-11-12T11:35:56.521Z,7.43
2022-11-12T11:38:36.345Z,6.53
2022-11-12T11:41:30.316Z,5.93
2022-11-12T11:44:14.079Z,5.60
2022-11-12T11:46:52.390Z,7.03
2022-11-12T11:49:45.444Z,6.50
2022-11-12T11:52:35.881Z,3.80
2022-11-12T11:55:16.710Z,4.93
2022-11-12T11:58:05.270Z,7.90
2022-11-12T12:00:47.466Z,3.33
2022-11-12T12:03:20.226Z,6.53
2022-11-12T12:06:07.060Z,6.40
2022-11-12T12:08:54.302Z,4.80
2022-11-12T12:11:28.726Z,8.53
2022-11-12T12:14:13.553Z,5.20
2022-11-12T12:16:53.798Z,4.77
2022-11-12T12:19:37.867Z,4.40
2022-11-12T12:22:11.617Z,5.87
2022-11-12T12:24:48.685Z,4.07
2022-11-12T12:27:20.320Z,6.17
2022-11-12T12:29:51.934Z,6.13
2022-11-12T12:32:24.682Z,3.37
2022-11-12T12:34:59.953Z,3.90
2022-11-12T12:37:36.018Z,3.47
2022-11-12T12:40:18.594Z,4.17
2022-11-12T12:42:52.173Z,5.60
2022-11-12T12:45:36.099Z,4.07
2022-11-12T12:48:08.259Z,5.88
2022-11-12T12:50:39.896Z,7.35
2022-11-12T12:53:18.885Z,4.00
2022-11-12T12:55:51.996Z,6.57
2022-11-12T12:58:27.294Z,4.97
2022-11-12T13:01:01.914Z,2.97
2022-11-12T13:03:58.576Z,6.00
2022-11-12T13:06:33.323Z,3.40
2022-11-12T13:09:05.091Z,2.90
2022-11-12T13:12:13.638Z,2.60
2022-11-12T13:15:21.026Z,3.17
2022-11-12T13:17:52.269Z,4.37
2022-11-12T13:20:37.088Z,3.77
2022-11-12T13:23:11.750Z,4.07
2022-11-12T13:25:40.146Z,5.13
2022-11-12T13:28:12.118Z,6.40
2022-11-12T13:31:00.086Z,4.23
2022-11-12T13:33:34.276Z,5.83
2022-11-12T13:36:27.800Z,4.93
2022-11-12T13:39:11.735Z,5.60
2022-11-12T13:41:57.409Z,6.03
2022-11-12T13:44:29.133Z,6.00
2022-11-12T13:46:57.818Z,5.50
2022-11-12T13:49:25.891Z,6.40
2022-11-12T13:51:56.644Z,5.95
2022-11-12T13:54:30.054Z,7.70
2022-11-12T13:56:58.128Z,7.07
2022-11-12T13:59:27.638Z,5.67
2022-11-12T14:01:56.932Z,6.03
2022-11-12T14:04:26.280Z,8.97
2022-11-12T14:06:58.422Z,6.80
2022-11-12T14:09:41.366Z,5.83
2022-11-12T14:12:36.090Z,5.23
2022-11-12T14:15:26.179Z,4.97
2022-11-12T14:18:01.559Z,4.13
2022-11-12T14:20:31.342Z,3.90
2022-11-12T14:23:05.907Z,4.30
2022-11-12T14:25:34.045Z,5.17
2022-11-12T14:28:01.947Z,5.50
2022-11-12T14:30:32.085Z,4.37
2022-11-12T14:33:01.753Z,4.50
2022-11-12T14:35:35.723Z,4.37
2022-11-12T14:38:15.979Z,6.13
2022-11-12T14:40:47.593Z,4.97
2022-11-12T14:43:27.989Z,5.10
2022-11-12T14:46:00.450Z,5.43
2022-11-12T14:48:28.964Z,6.83
2022-11-12T14:51:01.700Z,7.20
2022-11-12T14:53:33.775Z,5.73
2022-11-12T14:56:05.418Z,7.27
2022-11-12T14:58:34.499Z,6.33
2022-11-12T15:02:08.541Z,6.90
2022-11-12T15:04:21.665Z,7.33
2022-11-12T15:06:54.457Z,9.93
2022-11-12T15:09:35.119Z,10.67
2022-11-12T15:12:05.182Z,7.03
2022-11-12T15:14:34.064Z,10.13
2022-11-12T15:17:05.590Z,9.17
2022-11-12T15:19:34.067Z,11.63
2022-11-12T15:22:04.840Z,10.55
2022-11-12T15:24:34.747Z,9.67
2022-11-12T15:27:23.618Z,10.80
2022-11-12T15:29:51.568Z,13.73
2022-11-12T15:32:33.759Z,11.02
2022-11-12T15:35:03.010Z,11.90
2022-11-12T15:37:36.337Z,10.00
2022-11-12T15:40:12.147Z,12.07
2022-11-12T15:42:43.114Z,8.50
2022-11-12T15:45:15.611Z,11.20
2022-11-12T15:47:45.262Z,11.43
2022-11-12T15:50:18.487Z,13.90
2022-11-12T15:52:46.783Z,15.37
2022-11-12T15:55:15.295Z,15.20
2022-11-12T15:57:46.178Z,14.98
2022-11-12T16:00:16.817Z,17.87
2022-11-12T16:02:47.745Z,29.07
2022-11-12T16:05:16.925Z,22.80
2022-11-12T16:07:44.965Z,18.57
2022-11-12T16:10:15.070Z,14.97
2022-11-12T16:12:43.913Z,14.97
2022-11-12T16:15:15.201Z,16.53
2022-11-12T16:17:43.282Z,13.57
2022-11-12T16:20:19.110Z,14.27
2022-11-12T16:22:47.055Z,13.97
2022-11-12T16:25:15.504Z,10.90
2022-11-12T16:27:43.642Z,12.27
2022-11-12T16:30:16.678Z,14.83
2022-11-12T16:32:45.063Z,14.10
2022-11-12T16:35:13.032Z,12.23
2022-11-12T16:37:43.111Z,12.07
2022-11-12T16:40:15.081Z,14.03
2022-11-12T16:42:45.790Z,13.33
2022-11-12T16:45:15.816Z,12.53
2022-11-12T16:47:46.088Z,15.63
2022-11-12T16:50:16.681Z,15.87
2022-11-12T16:52:46.085Z,11.57
2022-11-12T16:55:14.160Z,13.87
2022-11-12T16:57:42.951Z,12.10
2022-11-12T17:00:13.072Z,16.40
2022-11-12T17:02:45.387Z,12.23
2022-11-12T17:05:19.920Z,14.80
2022-11-12T17:07:49.351Z,13.90
2022-11-12T17:10:23.089Z,15.70
2022-11-12T17:12:51.125Z,13.20
2022-11-12T17:15:19.553Z,14.43
2022-11-12T17:17:47.628Z,16.00
2022-11-12T17:20:15.527Z,11.77
2022-11-12T17:22:43.433Z,14.43
2022-11-12T17:25:12.877Z,16.27
2022-11-12T17:27:44.610Z,14.97
2022-11-12T17:30:14.011Z,13.87
2022-11-12T17:32:42.597Z,13.30
2022-11-12T17:35:10.777Z,12.57
2022-11-12T17:37:39.069Z,17.20
2022-11-12T17:40:08.676Z,16.80
2022-11-12T17:42:40.385Z,14.43
2022-11-12T17:45:09.713Z,15.27
2022-11-12T17:47:40.460Z,19.27
2022-11-12T17:50:10.047Z,45.30
2022-11-12T17:52:38.433Z,27.33
2022-11-12T17:55:06.988Z,22.00
2022-11-12T17:57:34.934Z,24.77
2022-11-12T18:00:05.284Z,20.47
2022-11-12T18:02:33.241Z,24.73
2022-11-12T18:05:01.658Z,25.67
2022-11-12T18:07:29.668Z,21.90
2022-11-12T18:09:57.540Z,24.93
2022-11-12T18:12:25.482Z,25.73
2022-11-12T18:14:53.341Z,22.13
2022-11-12T18:17:22.610Z,21.17
2022-11-12T18:19:50.624Z,23.30
2022-11-12T18:22:20.743Z,19.37
2022-11-12T18:24:48.917Z,20.70
2022-11-12T18:27:16.819Z,16.77
2022-11-12T18:29:45.732Z,20.53
2022-11-12T18:32:18.528Z,16.77
2022-11-12T18:34:49.174Z,20.43
2022-11-12T18:37:18.439Z,25.37
2022-11-12T18:39:47.129Z,18.83
2022-11-12T18:42:15.384Z,18.83
2022-11-12T18:44:43.794Z,18.73
2022-11-12T18:47:11.744Z,22.13
2022-11-12T18:49:39.714Z,18.73
2022-11-12T18:52:09.228Z,19.33
2022-11-12T18:54:37.132Z,20.03
2022-11-12T18:57:05.192Z,22.57
2022-11-12T18:59:33.281Z,20.20
2022-11-12T19:02:01.613Z,19.23
2022-11-12T19:04:32.882Z,19.00
2022-11-12T19:07:01.305Z,21.50
2022-11-12T19:09:33.041Z,19.53
2022-11-12T19:12:01.305Z,17.40
2022-11-12T19:14:29.457Z,17.70
2022-11-12T19:16:59.191Z,19.23
2022-11-12T19:19:29.578Z,21.63
2022-11-12T19:21:57.583Z,17.23
2022-11-12T19:24:25.531Z,24.57
2022-11-12T19:26:55.046Z,19.97
2022-11-12T19:29:23.334Z,20.93
2022-11-12T19:31:51.830Z,19.50
2022-11-12T19:34:20.540Z,20.90
2022-11-12T19:37:00.550Z,18.50
2022-11-12T19:39:37.965Z,18.90
2022-11-12T19:42:11.152Z,20.03
2022-11-12T19:44:39.308Z,20.50
2022-11-12T19:47:07.299Z,19.63
2022-11-12T19:49:35.882Z,22.20
2022-11-12T19:52:04.454Z,21.50
2022-11-12T19:54:32.529Z,22.87
2022-11-12T19:57:00.935Z,20.97
2022-11-12T19:59:30.345Z,20.07
2022-11-12T20:01:58.659Z,19.90
2022-11-12T20:04:27.483Z,19.93
2022-11-12T20:06:59.748Z,19.73
2022-11-12T20:09:27.924Z,20.40
2022-11-12T20:11:56.434Z,23.80
2022-11-12T20:14:25.107Z,23.10
2022-11-12T20:16:55.080Z,21.10
2022-11-12T20:19:23.579Z,19.53
2022-11-12T20:21:52.789Z,23.10
2022-11-12T20:24:20.983Z,23.63
2022-11-12T20:26:50.165Z,30.63
2022-11-12T20:29:21.038Z,21.77
2022-11-12T20:31:49.180Z,24.63
2022-11-12T20:34:19.007Z,26.33
2022-11-12T20:36:49.425Z,28.03
2022-11-12T20:39:38.276Z,25.00
2022-11-12T20:42:09.088Z,24.87
2022-11-12T20:44:37.985Z,26.87
2022-11-12T20:47:08.085Z,26.43
2022-11-12T20:49:38.657Z,27.83
2022-11-12T20:52:07.121Z,26.57
2022-11-12T20:54:42.747Z,26.50
2022-11-12T20:57:25.945Z,31.97
2022-11-12T20:59:55.296Z,27.03
2022-11-12T21:02:24.487Z,27.60
2022-11-12T21:04:56.162Z,26.70
2022-11-12T21:07:24.840Z,26.87
2022-11-12T21:09:52.892Z,24.97
2022-11-12T21:12:21.491Z,24.17
2022-11-12T21:14:50.752Z,28.87
2022-11-12T21:17:19.781Z,27.33
2022-11-12T21:19:47.738Z,29.93
2022-11-12T21:22:22.793Z,26.07
2022-11-12T21:24:50.822Z,25.77
2022-11-12T21:27:18.957Z,26.10
2022-11-12T21:29:46.924Z,26.60
2022-11-12T21:32:34.843Z,27.03
2022-11-12T21:35:02.934Z,33.57
2022-11-12T21:37:32.411Z,27.47
2022-11-12T21:40:00.348Z,26.43
2022-11-12T21:42:28.292Z,27.67
2022-11-12T21:44:57.609Z,31.63
2022-11-12T21:47:25.994Z,33.17
2022-11-12T21:49:57.074Z,30.63
2022-11-12T21:52:25.140Z,31.33
2022-11-12T21:54:54.676Z,26.40
2022-11-12T21:57:22.791Z,27.53
2022-11-12T21:59:50.827Z,30.73
2022-11-12T22:02:18.878Z,30.57
2022-11-12T22:04:46.847Z,29.23
2022-11-12T22:07:15.088Z,34.70
2022-11-12T22:09:43.203Z,32.40
2022-11-12T22:12:12.514Z,30.70
2022-11-12T22:14:40.585Z,34.47
2022-11-12T22:17:08.540Z,31.03
2022-11-12T22:19:36.731Z,32.60
2022-11-12T22:22:04.950Z,34.37
2022-11-12T22:24:32.833Z,31.40
2022-11-12T22:27:05.236Z,34.83
2022-11-12T22:29:35.178Z,35.13
2022-11-12T22:32:03.290Z,32.03
2022-11-12T22:34:31.494Z,33.17
2022-11-12T22:36:59.395Z,32.07
2022-11-12T22:39:27.575Z,33.63
2022-11-12T22:41:55.487Z,29.93
2022-11-12T22:44:23.706Z,33.50
2022-11-12T22:46:52.938Z,30.90
2022-11-12T22:49:20.860Z,32.67
2022-11-12T22:51:49.823Z,31.47
2022-11-12T22:54:18.073Z,28.20
2022-11-12T22:56:46.050Z,28.67
2022-11-12T22:59:14.188Z,28.47
2022-11-12T23:01:42.197Z,27.90
2022-11-12T23:04:11.900Z,28.30
2022-11-12T23:06:39.852Z,26.43
2022-11-12T23:09:07.983Z,29.33
2022-11-12T23:11:38.164Z,27.00
2022-11-12T23:14:06.131Z,27.13
2022-11-12T23:16:35.343Z,26.90
2022-11-12T23:19:03.424Z,27.03
2022-11-12T23:21:32.972Z,25.93
2022-11-12T23:24:01.321Z,26.43
2022-11-12T23:26:32.144Z,25.73
2022-11-12T23:29:02.464Z,27.07
2022-11-12T23:31:32.138Z,28.83
2022-11-12T23:34:01.733Z,28.43
2022-11-12T23:36:30.508Z,28.67
2022-11-12T23:39:00.782Z,31.30
2022-11-12T23:41:29.165Z,28.73
2022-11-12T23:43:58.310Z,30.83
2022-11-12T23:46:26.795Z,31.30
2022-11-12T23:48:54.807Z,28.07
2022-11-12T23:51:23.619Z,32.77
2022-11-12T23:53:51.584Z,30.80
2022-11-12T23:56:21.016Z,29.87
2022-11-12T23:58:48.957Z,32.27
